sensor_id;sensor_type;location;lat;lon;timestamp;pressure;altitude;pressure_sealevel;temperature;humidity
16821;BME280;8527;49.740;6.604;2023-04-09T00:01:21;100538.22;;;6.09;89.13
16821;BME280;8527;49.740;6.604;2023-04-09T00:06:25;100542.13;;;5.92;89.35
16821;BME280;8527;49.740;6.604;2023-04-09T00:11:26;100537.81;;;5.80;91.63
16821;BME280;8527;49.740;6.604;2023-04-09T00:16:27;100532.78;;;5.76;93.08
16821;BME280;8527;49.740;6.604;2023-04-09T00:21:25;100528.13;;;5.91;90.77
16821;BME280;8527;49.740;6.604;2023-04-09T00:26:24;100533.66;;;5.88;91.00
16821;BME280;8527;49.740;6.604;2023-04-09T00:31:22;100524.53;;;5.81;93.45
16821;BME280;8527;49.740;6.604;2023-04-09T00:36:23;100526.53;;;5.66;93.58
16821;BME280;8527;49.740;6.604;2023-04-09T00:41:21;100524.84;;;5.54;93.12
16821;BME280;8527;49.740;6.604;2023-04-09T00:46:20;100519.09;;;5.48;91.31
16821;BME280;8527;49.740;6.604;2023-04-09T00:51:18;100520.41;;;5.43;92.54
16821;BME280;8527;49.740;6.604;2023-04-09T00:56:21;100520.97;;;5.35;92.39
16821;BME280;8527;49.740;6.604;2023-04-09T01:01:23;100527.31;;;5.32;93.61
16821;BME280;8527;49.740;6.604;2023-04-09T01:06:26;100530.50;;;5.25;94.28
16821;BME280;8527;49.740;6.604;2023-04-09T01:11:34;100527.41;;;5.19;93.60
16821;BME280;8527;49.740;6.604;2023-04-09T01:16:39;100527.59;;;5.16;93.93
16821;BME280;8527;49.740;6.604;2023-04-09T01:21:39;100522.19;;;5.06;93.11
16821;BME280;8527;49.740;6.604;2023-04-09T01:26:53;100519.94;;;5.13;96.03
16821;BME280;8527;49.740;6.604;2023-04-09T01:32:03;100519.47;;;5.08;97.27
16821;BME280;8527;49.740;6.604;2023-04-09T01:37:04;100519.19;;;5.00;95.00
16821;BME280;8527;49.740;6.604;2023-04-09T01:42:08;100518.41;;;4.86;95.55
16821;BME280;8527;49.740;6.604;2023-04-09T01:47:14;100520.56;;;4.92;96.22
16821;BME280;8527;49.740;6.604;2023-04-09T01:52:13;100525.44;;;4.86;98.93
16821;BME280;8527;49.740;6.604;2023-04-09T01:57:12;100510.94;;;4.80;100.00
16821;BME280;8527;49.740;6.604;2023-04-09T02:02:17;100518.25;;;4.76;98.27
16821;BME280;8527;49.740;6.604;2023-04-09T02:07:22;100523.16;;;4.81;98.30
16821;BME280;8527;49.740;6.604;2023-04-09T02:12:29;100519.47;;;4.84;96.37
16821;BME280;8527;49.740;6.604;2023-04-09T02:17:34;100528.81;;;4.88;95.01
16821;BME280;8527;49.740;6.604;2023-04-09T02:22:35;100522.09;;;4.84;97.33
16821;BME280;8527;49.740;6.604;2023-04-09T02:27:33;100527.25;;;4.85;99.44
16821;BME280;8527;49.740;6.604;2023-04-09T02:32:40;100522.03;;;4.97;97.25
16821;BME280;8527;49.740;6.604;2023-04-09T02:37:41;100511.41;;;4.98;96.84
16821;BME280;8527;49.740;6.604;2023-04-09T02:42:40;100513.44;;;4.95;99.12
16821;BME280;8527;49.740;6.604;2023-04-09T02:47:41;100510.44;;;4.99;99.77
16821;BME280;8527;49.740;6.604;2023-04-09T02:52:41;100524.09;;;5.04;98.08
16821;BME280;8527;49.740;6.604;2023-04-09T02:57:39;100516.84;;;5.08;97.99
16821;BME280;8527;49.740;6.604;2023-04-09T03:02:38;100508.94;;;5.08;96.95
16821;BME280;8527;49.740;6.604;2023-04-09T03:07:42;100505.34;;;5.09;98.38
16821;BME280;8527;49.740;6.604;2023-04-09T03:12:41;100505.78;;;5.03;100.00
16821;BME280;8527;49.740;6.604;2023-04-09T03:17:47;100497.84;;;4.91;100.00
16821;BME280;8527;49.740;6.604;2023-04-09T03:22:48;100497.59;;;4.83;100.00
16821;BME280;8527;49.740;6.604;2023-04-09T03:27:49;100492.28;;;4.72;100.00
16821;BME280;8527;49.740;6.604;2023-04-09T03:32:51;100497.16;;;4.65;100.00
16821;BME280;8527;49.740;6.604;2023-04-09T03:37:53;100492.06;;;4.75;100.00
16821;BME280;8527;49.740;6.604;2023-04-09T03:42:51;100489.72;;;4.83;99.92
16821;BME280;8527;49.740;6.604;2023-04-09T03:47:50;100490.06;;;4.78;98.75
16821;BME280;8527;49.740;6.604;2023-04-09T03:52:54;100491.72;;;4.79;96.54
16821;BME280;8527;49.740;6.604;2023-04-09T03:57:52;100492.53;;;4.69;99.42
16821;BME280;8527;49.740;6.604;2023-04-09T04:02:54;100493.91;;;4.61;99.56
16821;BME280;8527;49.740;6.604;2023-04-09T04:07:55;100495.88;;;4.71;97.54
16821;BME280;8527;49.740;6.604;2023-04-09T04:12:54;100492.47;;;4.57;97.94
16821;BME280;8527;49.740;6.604;2023-04-09T04:18:00;100494.63;;;4.63;100.00
16821;BME280;8527;49.740;6.604;2023-04-09T04:23:02;100486.97;;;4.60;100.00
16821;BME280;8527;49.740;6.604;2023-04-09T04:28:03;100488.97;;;4.57;100.00
16821;BME280;8527;49.740;6.604;2023-04-09T04:33:13;100497.88;;;4.67;100.00
16821;BME280;8527;49.740;6.604;2023-04-09T04:38:14;100497.72;;;4.57;99.97
16821;BME280;8527;49.740;6.604;2023-04-09T04:43:12;100500.00;;;4.62;98.35
16821;BME280;8527;49.740;6.604;2023-04-09T04:48:10;100498.22;;;4.62;97.23
16821;BME280;8527;49.740;6.604;2023-04-09T04:53:09;100497.50;;;4.60;97.92
16821;BME280;8527;49.740;6.604;2023-04-09T04:58:10;100500.22;;;4.59;100.00
16821;BME280;8527;49.740;6.604;2023-04-09T05:03:08;100502.84;;;4.59;97.84
16821;BME280;8527;49.740;6.604;2023-04-09T05:08:15;100515.22;;;4.70;96.93
16821;BME280;8527;49.740;6.604;2023-04-09T05:13:17;100516.44;;;4.77;97.12
16821;BME280;8527;49.740;6.604;2023-04-09T05:18:17;100509.06;;;4.82;95.58
16821;BME280;8527;49.740;6.604;2023-04-09T05:23:21;100508.78;;;4.74;96.97
16821;BME280;8527;49.740;6.604;2023-04-09T05:28:25;100506.88;;;4.76;98.45
16821;BME280;8527;49.740;6.604;2023-04-09T05:33:33;100507.16;;;4.84;97.65
16821;BME280;8527;49.740;6.604;2023-04-09T05:38:32;100508.94;;;4.84;97.95
16821;BME280;8527;49.740;6.604;2023-04-09T05:43:36;100507.41;;;4.81;98.22
16821;BME280;8527;49.740;6.604;2023-04-09T05:48:37;100508.31;;;4.80;99.51
16821;BME280;8527;49.740;6.604;2023-04-09T05:53:36;100499.00;;;4.76;100.00
16821;BME280;8527;49.740;6.604;2023-04-09T05:58:39;100502.16;;;4.81;97.73
16821;BME280;8527;49.740;6.604;2023-04-09T06:03:44;100507.41;;;4.81;96.30
16821;BME280;8527;49.740;6.604;2023-04-09T06:08:42;100510.84;;;4.82;95.91
16821;BME280;8527;49.740;6.604;2023-04-09T06:13:44;100514.72;;;4.89;95.75
16821;BME280;8527;49.740;6.604;2023-04-09T06:18:42;100510.19;;;4.91;96.95
16821;BME280;8527;49.740;6.604;2023-04-09T06:23:41;100521.56;;;5.03;96.40
16821;BME280;8527;49.740;6.604;2023-04-09T06:28:40;100519.50;;;5.19;96.13
16821;BME280;8527;49.740;6.604;2023-04-09T06:33:41;100520.44;;;5.54;94.90
16821;BME280;8527;49.740;6.604;2023-04-09T06:38:41;100526.00;;;6.86;91.46
16821;BME280;8527;49.740;6.604;2023-04-09T06:43:40;100525.81;;;7.74;89.53
16821;BME280;8527;49.740;6.604;2023-04-09T06:48:44;100522.88;;;8.09;86.86
16821;BME280;8527;49.740;6.604;2023-04-09T06:53:45;100527.56;;;8.97;86.27
16821;BME280;8527;49.740;6.604;2023-04-09T06:58:44;100522.91;;;9.58;84.43
16821;BME280;8527;49.740;6.604;2023-04-09T07:03:46;100521.47;;;9.83;80.63
16821;BME280;8527;49.740;6.604;2023-04-09T07:08:44;100520.63;;;10.21;76.20
16821;BME280;8527;49.740;6.604;2023-04-09T07:13:42;100527.25;;;9.69;76.92
16821;BME280;8527;49.740;6.604;2023-04-09T07:18:41;100528.97;;;10.26;75.00
16821;BME280;8527;49.740;6.604;2023-04-09T07:23:42;100533.50;;;10.72;72.51
16821;BME280;8527;49.740;6.604;2023-04-09T07:28:46;100528.78;;;10.65;72.16
16821;BME280;8527;49.740;6.604;2023-04-09T07:33:48;100531.00;;;10.88;68.66
16821;BME280;8527;49.740;6.604;2023-04-09T07:38:49;100537.66;;;10.74;68.89
16821;BME280;8527;49.740;6.604;2023-04-09T07:43:47;100534.19;;;11.28;67.13
16821;BME280;8527;49.740;6.604;2023-04-09T07:48:46;100519.00;;;11.65;64.96
16821;BME280;8527;49.740;6.604;2023-04-09T07:58:52;100529.19;;;11.51;64.25
16821;BME280;8527;49.740;6.604;2023-04-09T08:03:53;100525.94;;;12.70;62.67
16821;BME280;8527;49.740;6.604;2023-04-09T08:08:54;100533.28;;;12.76;60.84
16821;BME280;8527;49.740;6.604;2023-04-09T08:13:55;100529.91;;;12.58;61.75
16821;BME280;8527;49.740;6.604;2023-04-09T08:18:56;100538.00;;;13.16;59.18
16821;BME280;8527;49.740;6.604;2023-04-09T08:23:54;100532.03;;;13.55;59.18
16821;BME280;8527;49.740;6.604;2023-04-09T08:28:58;100537.31;;;13.72;58.27
16821;BME280;8527;49.740;6.604;2023-04-09T08:33:56;100537.00;;;13.33;58.66
16821;BME280;8527;49.740;6.604;2023-04-09T08:38:55;100529.81;;;13.42;58.91
16821;BME280;8527;49.740;6.604;2023-04-09T08:43:57;100535.34;;;13.66;58.07
16821;BME280;8527;49.740;6.604;2023-04-09T08:48:56;100521.16;;;14.21;57.97
16821;BME280;8527;49.740;6.604;2023-04-09T08:53:55;100523.28;;;13.86;57.21
16821;BME280;8527;49.740;6.604;2023-04-09T08:58:54;100517.69;;;13.48;59.08
16821;BME280;8527;49.740;6.604;2023-04-09T09:04:00;100511.84;;;13.36;60.78
16821;BME280;8527;49.740;6.604;2023-04-09T09:09:00;100515.16;;;13.30;59.47
16821;BME280;8527;49.740;6.604;2023-04-09T09:14:00;100506.97;;;12.65;61.55
16821;BME280;8527;49.740;6.604;2023-04-09T09:19:01;100493.19;;;12.78;62.09
16821;BME280;8527;49.740;6.604;2023-04-09T09:24:00;100504.50;;;12.80;61.74
16821;BME280;8527;49.740;6.604;2023-04-09T09:28:59;100491.56;;;14.00;58.71
16821;BME280;8527;49.740;6.604;2023-04-09T09:34:07;100485.16;;;13.69;58.73
16821;BME280;8527;49.740;6.604;2023-04-09T09:39:06;100492.50;;;13.67;58.87
16821;BME280;8527;49.740;6.604;2023-04-09T09:44:07;100492.13;;;13.78;55.67
16821;BME280;8527;49.740;6.604;2023-04-09T09:49:08;100490.69;;;13.34;57.33
16821;BME280;8527;49.740;6.604;2023-04-09T09:54:10;100493.47;;;14.54;55.44
16821;BME280;8527;49.740;6.604;2023-04-09T09:59:13;100490.78;;;14.54;54.35
16821;BME280;8527;49.740;6.604;2023-04-09T10:04:15;100488.38;;;14.36;53.88
16821;BME280;8527;49.740;6.604;2023-04-09T10:09:18;100484.97;;;13.79;53.85
16821;BME280;8527;49.740;6.604;2023-04-09T10:14:19;100481.31;;;13.63;54.39
16821;BME280;8527;49.740;6.604;2023-04-09T10:19:21;100485.84;;;14.11;54.23
16821;BME280;8527;49.740;6.604;2023-04-09T10:24:20;100474.34;;;14.11;54.16
16821;BME280;8527;49.740;6.604;2023-04-09T10:29:26;100471.13;;;14.15;53.04
16821;BME280;8527;49.740;6.604;2023-04-09T10:34:28;100466.56;;;15.41;53.72
16821;BME280;8527;49.740;6.604;2023-04-09T10:39:30;100464.09;;;16.14;51.94
16821;BME280;8527;49.740;6.604;2023-04-09T10:44:30;100462.25;;;16.15;50.95
16821;BME280;8527;49.740;6.604;2023-04-09T10:49:37;100446.94;;;16.09;50.95
16821;BME280;8527;49.740;6.604;2023-04-09T10:54:41;100452.91;;;14.82;51.30
16821;BME280;8527;49.740;6.604;2023-04-09T10:59:50;100453.78;;;14.51;51.50
16821;BME280;8527;49.740;6.604;2023-04-09T11:05:00;100441.91;;;14.54;52.30
16821;BME280;8527;49.740;6.604;2023-04-09T11:10:01;100439.59;;;15.96;49.08
16821;BME280;8527;49.740;6.604;2023-04-09T11:14:59;100444.75;;;15.37;50.21
16821;BME280;8527;49.740;6.604;2023-04-09T11:20:01;100443.00;;;14.59;51.58
16821;BME280;8527;49.740;6.604;2023-04-09T11:25:00;100427.97;;;15.58;48.19
16821;BME280;8527;49.740;6.604;2023-04-09T11:29:58;100429.56;;;16.20;48.61
16821;BME280;8527;49.740;6.604;2023-04-09T11:34:56;100425.19;;;15.97;49.01
16821;BME280;8527;49.740;6.604;2023-04-09T11:39:57;100420.75;;;15.74;48.65
16821;BME280;8527;49.740;6.604;2023-04-09T11:44:56;100429.72;;;14.98;50.47
16821;BME280;8527;49.740;6.604;2023-04-09T11:49:55;100431.50;;;15.05;51.88
16821;BME280;8527;49.740;6.604;2023-04-09T11:54:53;100421.88;;;15.35;50.08
16821;BME280;8527;49.740;6.604;2023-04-09T11:59:57;100430.63;;;14.43;51.18
16821;BME280;8527;49.740;6.604;2023-04-09T12:05:02;100423.97;;;15.24;51.16
16821;BME280;8527;49.740;6.604;2023-04-09T12:10:03;100429.97;;;14.88;50.51
16821;BME280;8527;49.740;6.604;2023-04-09T12:15:09;100422.50;;;15.67;50.65
16821;BME280;8527;49.740;6.604;2023-04-09T12:20:09;100419.63;;;16.79;49.74
16821;BME280;8527;49.740;6.604;2023-04-09T12:25:08;100418.56;;;16.51;48.10
16821;BME280;8527;49.740;6.604;2023-04-09T12:30:10;100426.66;;;15.84;48.22
16821;BME280;8527;49.740;6.604;2023-04-09T12:35:12;100404.63;;;15.22;49.44
16821;BME280;8527;49.740;6.604;2023-04-09T12:40:11;100403.41;;;15.40;48.76
16821;BME280;8527;49.740;6.604;2023-04-09T12:45:16;100402.78;;;15.38;48.05
16821;BME280;8527;49.740;6.604;2023-04-09T12:50:14;100393.19;;;15.58;47.82
16821;BME280;8527;49.740;6.604;2023-04-09T12:55:13;100392.91;;;15.23;48.75
16821;BME280;8527;49.740;6.604;2023-04-09T13:00:15;100395.13;;;15.04;48.00
16821;BME280;8527;49.740;6.604;2023-04-09T13:05:13;100385.25;;;15.20;49.46
16821;BME280;8527;49.740;6.604;2023-04-09T13:10:14;100382.84;;;16.00;49.05
16821;BME280;8527;49.740;6.604;2023-04-09T13:15:15;100382.22;;;15.53;46.53
16821;BME280;8527;49.740;6.604;2023-04-09T13:20:14;100367.09;;;15.15;47.63
16821;BME280;8527;49.740;6.604;2023-04-09T13:25:15;100357.22;;;15.16;47.30
16821;BME280;8527;49.740;6.604;2023-04-09T13:30:16;100363.06;;;16.01;45.92
16821;BME280;8527;49.740;6.604;2023-04-09T13:35:18;100360.34;;;16.38;44.88
16821;BME280;8527;49.740;6.604;2023-04-09T13:40:16;100352.94;;;16.40;46.57
16821;BME280;8527;49.740;6.604;2023-04-09T13:45:17;100348.94;;;16.51;44.90
16821;BME280;8527;49.740;6.604;2023-04-09T13:50:18;100347.50;;;15.75;45.51
16821;BME280;8527;49.740;6.604;2023-04-09T13:55:19;100340.88;;;15.71;45.37
16821;BME280;8527;49.740;6.604;2023-04-09T14:00:20;100335.16;;;15.74;45.93
16821;BME280;8527;49.740;6.604;2023-04-09T14:05:18;100332.84;;;15.71;45.79
16821;BME280;8527;49.740;6.604;2023-04-09T14:10:20;100329.75;;;15.52;45.65
16821;BME280;8527;49.740;6.604;2023-04-09T14:15:24;100324.25;;;15.91;44.78
16821;BME280;8527;49.740;6.604;2023-04-09T14:20:22;100311.59;;;15.84;45.55
16821;BME280;8527;49.740;6.604;2023-04-09T14:25:20;100306.78;;;15.58;45.52
16821;BME280;8527;49.740;6.604;2023-04-09T14:30:19;100302.50;;;16.22;46.65
16821;BME280;8527;49.740;6.604;2023-04-09T14:35:21;100298.25;;;15.69;44.87
16821;BME280;8527;49.740;6.604;2023-04-09T14:40:19;100293.28;;;16.25;46.33
16821;BME280;8527;49.740;6.604;2023-04-09T14:45:21;100293.66;;;16.00;45.17
16821;BME280;8527;49.740;6.604;2023-04-09T14:50:21;100291.16;;;16.42;45.90
16821;BME280;8527;49.740;6.604;2023-04-09T14:55:20;100297.75;;;15.81;45.81
16821;BME280;8527;49.740;6.604;2023-04-09T15:00:20;100286.03;;;15.82;45.93
16821;BME280;8527;49.740;6.604;2023-04-09T15:05:24;100283.81;;;15.85;44.80
16821;BME280;8527;49.740;6.604;2023-04-09T15:10:23;100288.09;;;15.80;45.98
16821;BME280;8527;49.740;6.604;2023-04-09T15:15:22;100297.69;;;15.74;44.63
16821;BME280;8527;49.740;6.604;2023-04-09T15:20:24;100282.53;;;15.44;44.85
16821;BME280;8527;49.740;6.604;2023-04-09T15:25:22;100284.09;;;15.54;44.63
16821;BME280;8527;49.740;6.604;2023-04-09T15:30:20;100280.25;;;15.26;44.68
16821;BME280;8527;49.740;6.604;2023-04-09T15:35:19;100278.75;;;15.54;44.76
16821;BME280;8527;49.740;6.604;2023-04-09T15:40:22;100280.47;;;15.61;43.81
16821;BME280;8527;49.740;6.604;2023-04-09T15:45:25;100280.25;;;15.41;44.63
16821;BME280;8527;49.740;6.604;2023-04-09T15:50:24;100282.44;;;15.53;46.03
16821;BME280;8527;49.740;6.604;2023-04-09T15:55:25;100280.97;;;15.50;46.64
16821;BME280;8527;49.740;6.604;2023-04-09T16:00:26;100291.16;;;15.10;46.42
16821;BME280;8527;49.740;6.604;2023-04-09T16:05:24;100279.19;;;15.05;47.28
16821;BME280;8527;49.740;6.604;2023-04-09T16:10:29;100270.97;;;15.07;46.57
16821;BME280;8527;49.740;6.604;2023-04-09T16:15:29;100272.53;;;15.01;46.36
16821;BME280;8527;49.740;6.604;2023-04-09T16:20:28;100277.41;;;14.98;47.09
16821;BME280;8527;49.740;6.604;2023-04-09T16:25:29;100269.78;;;14.95;47.01
16821;BME280;8527;49.740;6.604;2023-04-09T16:30:27;100269.44;;;14.83;47.33
16821;BME280;8527;49.740;6.604;2023-04-09T16:35:26;100279.09;;;14.99;47.14
16821;BME280;8527;49.740;6.604;2023-04-09T16:40:24;100279.81;;;14.93;46.51
16821;BME280;8527;49.740;6.604;2023-04-09T16:45:25;100269.59;;;14.81;47.36
16821;BME280;8527;49.740;6.604;2023-04-09T16:50:23;100267.06;;;14.65;48.64
16821;BME280;8527;49.740;6.604;2023-04-09T16:55:22;100267.78;;;14.58;48.92
16821;BME280;8527;49.740;6.604;2023-04-09T17:00:20;100266.13;;;14.57;47.95
16821;BME280;8527;49.740;6.604;2023-04-09T17:05:22;100254.53;;;14.50;47.07
16821;BME280;8527;49.740;6.604;2023-04-09T17:10:20;100255.34;;;14.51;47.64
16821;BME280;8527;49.740;6.604;2023-04-09T17:15:18;100254.34;;;14.37;49.79
16821;BME280;8527;49.740;6.604;2023-04-09T17:20:21;100257.34;;;14.33;48.12
16821;BME280;8527;49.740;6.604;2023-04-09T17:25:26;100253.38;;;14.29;48.07
16821;BME280;8527;49.740;6.604;2023-04-09T17:30:25;100262.41;;;14.28;47.88
16821;BME280;8527;49.740;6.604;2023-04-09T17:35:28;100273.03;;;14.13;53.53
16821;BME280;8527;49.740;6.604;2023-04-09T17:40:27;100276.06;;;14.10;55.82
16821;BME280;8527;49.740;6.604;2023-04-09T17:45:26;100277.78;;;13.79;57.59
16821;BME280;8527;49.740;6.604;2023-04-09T17:50:24;100281.97;;;13.74;57.74
16821;BME280;8527;49.740;6.604;2023-04-09T17:55:25;100290.06;;;13.57;59.00
16821;BME280;8527;49.740;6.604;2023-04-09T18:00:25;100292.59;;;13.42;58.99
16821;BME280;8527;49.740;6.604;2023-04-09T18:05:24;100294.34;;;13.27;60.28
16821;BME280;8527;49.740;6.604;2023-04-09T18:10:24;100308.59;;;13.02;60.64
16821;BME280;8527;49.740;6.604;2023-04-09T18:15:26;100305.28;;;12.75;62.35
16821;BME280;8527;49.740;6.604;2023-04-09T18:20:25;100309.66;;;12.68;61.82
16821;BME280;8527;49.740;6.604;2023-04-09T18:25:26;100314.16;;;12.34;62.93
16821;BME280;8527;49.740;6.604;2023-04-09T18:30:24;100326.63;;;12.34;61.33
16821;BME280;8527;49.740;6.604;2023-04-09T18:35:22;100328.94;;;12.20;63.71
16821;BME280;8527;49.740;6.604;2023-04-09T18:40:21;100325.44;;;12.12;63.04
16821;BME280;8527;49.740;6.604;2023-04-09T18:45:24;100328.84;;;11.87;63.61
16821;BME280;8527;49.740;6.604;2023-04-09T18:50:23;100332.50;;;11.86;63.67
16821;BME280;8527;49.740;6.604;2023-04-09T18:55:21;100336.13;;;11.68;61.82
16821;BME280;8527;49.740;6.604;2023-04-09T19:00:22;100335.59;;;11.65;63.50
16821;BME280;8527;49.740;6.604;2023-04-09T19:05:21;100329.19;;;11.33;64.17
16821;BME280;8527;49.740;6.604;2023-04-09T19:10:20;100333.22;;;11.45;63.27
16821;BME280;8527;49.740;6.604;2023-04-09T19:15:21;100331.91;;;11.15;65.41
16821;BME280;8527;49.740;6.604;2023-04-09T19:20:23;100339.06;;;10.88;65.60
16821;BME280;8527;49.740;6.604;2023-04-09T19:25:21;100328.28;;;10.89;64.43
16821;BME280;8527;49.740;6.604;2023-04-09T19:30:20;100344.97;;;10.81;65.11
16821;BME280;8527;49.740;6.604;2023-04-09T19:35:19;100357.13;;;10.84;64.07
16821;BME280;8527;49.740;6.604;2023-04-09T19:40:20;100338.84;;;10.81;64.35
16821;BME280;8527;49.740;6.604;2023-04-09T19:45:21;100346.66;;;10.64;64.36
16821;BME280;8527;49.740;6.604;2023-04-09T19:50:20;100344.47;;;10.60;64.82
16821;BME280;8527;49.740;6.604;2023-04-09T19:55:21;100354.16;;;10.14;66.93
16821;BME280;8527;49.740;6.604;2023-04-09T20:00:20;100356.88;;;10.05;67.53
16821;BME280;8527;49.740;6.604;2023-04-09T20:05:18;100355.22;;;10.04;67.43
16821;BME280;8527;49.740;6.604;2023-04-09T20:10:17;100347.19;;;9.95;66.35
16821;BME280;8527;49.740;6.604;2023-04-09T20:15:19;100359.22;;;9.90;66.05
16821;BME280;8527;49.740;6.604;2023-04-09T20:20:17;100354.66;;;9.82;64.89
16821;BME280;8527;49.740;6.604;2023-04-09T20:25:16;100356.25;;;9.75;66.43
16821;BME280;8527;49.740;6.604;2023-04-09T20:30:17;100348.75;;;9.42;67.99
16821;BME280;8527;49.740;6.604;2023-04-09T20:35:17;100355.28;;;9.38;67.25
16821;BME280;8527;49.740;6.604;2023-04-09T20:40:16;100356.28;;;9.37;66.51
16821;BME280;8527;49.740;6.604;2023-04-09T20:45:14;100348.06;;;9.30;66.96
16821;BME280;8527;49.740;6.604;2023-04-09T20:50:18;100343.25;;;9.15;67.15
16821;BME280;8527;49.740;6.604;2023-04-09T20:55:16;100347.06;;;9.03;67.64
16821;BME280;8527;49.740;6.604;2023-04-09T21:00:20;100347.25;;;8.82;68.48
16821;BME280;8527;49.740;6.604;2023-04-09T21:05:24;100339.72;;;8.77;68.05
16821;BME280;8527;49.740;6.604;2023-04-09T21:10:24;100333.91;;;8.64;68.88
16821;BME280;8527;49.740;6.604;2023-04-09T21:15:28;100336.41;;;8.55;68.86
16821;BME280;8527;49.740;6.604;2023-04-09T21:20:32;100338.34;;;8.43;69.65
16821;BME280;8527;49.740;6.604;2023-04-09T21:25:30;100338.63;;;8.30;70.81
16821;BME280;8527;49.740;6.604;2023-04-09T21:30:29;100334.72;;;8.25;70.71
16821;BME280;8527;49.740;6.604;2023-04-09T21:35:27;100332.78;;;8.17;72.77
16821;BME280;8527;49.740;6.604;2023-04-09T21:40:29;100333.19;;;7.93;73.10
16821;BME280;8527;49.740;6.604;2023-04-09T21:45:27;100329.09;;;7.79;72.51
16821;BME280;8527;49.740;6.604;2023-04-09T21:50:26;100329.56;;;7.84;72.90
16821;BME280;8527;49.740;6.604;2023-04-09T21:55:24;100322.72;;;7.81;72.46
16821;BME280;8527;49.740;6.604;2023-04-09T22:00:25;100320.47;;;7.67;73.10
16821;BME280;8527;49.740;6.604;2023-04-09T22:05:24;100313.09;;;7.60;72.46
16821;BME280;8527;49.740;6.604;2023-04-09T22:10:22;100317.25;;;7.22;74.89
16821;BME280;8527;49.740;6.604;2023-04-09T22:15:21;100311.41;;;7.18;75.50
16821;BME280;8527;49.740;6.604;2023-04-09T22:20:23;100320.34;;;6.96;75.40
16821;BME280;8527;49.740;6.604;2023-04-09T22:25:21;100317.63;;;7.08;76.31
16821;BME280;8527;49.740;6.604;2023-04-09T22:30:20;100312.47;;;7.06;76.34
16821;BME280;8527;49.740;6.604;2023-04-09T22:35:18;100314.16;;;6.86;76.58
16821;BME280;8527;49.740;6.604;2023-04-09T22:40:20;100312.88;;;6.80;75.54
16821;BME280;8527;49.740;6.604;2023-04-09T22:45:20;100316.41;;;6.90;76.52
16821;BME280;8527;49.740;6.604;2023-04-09T22:50:25;100329.41;;;6.82;77.31
16821;BME280;8527;49.740;6.604;2023-04-09T22:55:26;100332.03;;;6.82;76.10
16821;BME280;8527;49.740;6.604;2023-04-09T23:00:25;100334.81;;;6.81;77.57
16821;BME280;8527;49.740;6.604;2023-04-09T23:05:23;100338.13;;;6.73;76.89
16821;BME280;8527;49.740;6.604;2023-04-09T23:10:21;100346.47;;;6.78;77.57
16821;BME280;8527;49.740;6.604;2023-04-09T23:15:23;100340.16;;;6.69;78.71
16821;BME280;8527;49.740;6.604;2023-04-09T23:20:22;100336.13;;;6.65;79.00
16821;BME280;8527;49.740;6.604;2023-04-09T23:25:20;100343.19;;;6.65;78.79
16821;BME280;8527;49.740;6.604;2023-04-09T23:30:21;100329.88;;;6.66;79.14
16821;BME280;8527;49.740;6.604;2023-04-09T23:35:22;100337.09;;;6.64;79.41
16821;BME280;8527;49.740;6.604;2023-04-09T23:40:21;100329.63;;;6.48;79.17
16821;BME280;8527;49.740;6.604;2023-04-09T23:45:22;100317.53;;;6.45;80.92
16821;BME280;8527;49.740;6.604;2023-04-09T23:50:21;100321.69;;;6.27;81.86
16821;BME280;8527;49.740;6.604;2023-04-09T23:55:22;100320.41;;;6.21;80.75
